createdAt,value
2019-05-22T00:04:12.131Z,12.90
2019-05-22T00:06:41.515Z,12.93
2019-05-22T00:09:08.930Z,12.94
2019-05-22T00:11:34.855Z,13.08
2019-05-22T00:13:59.685Z,12.72
2019-05-22T00:16:24.509Z,12.68
2019-05-22T00:18:50.694Z,12.99
2019-05-22T00:21:16.699Z,13.21
2019-05-22T00:23:43.784Z,12.95
2019-05-22T00:26:08.266Z,12.73
2019-05-22T00:28:33.449Z,12.69
2019-05-22T00:30:59.280Z,12.76
2019-05-22T00:33:23.816Z,12.69
2019-05-22T00:35:49.936Z,12.68
2019-05-22T00:38:15.319Z,12.50
2019-05-22T00:40:44.974Z,12.91
2019-05-22T00:43:13.969Z,12.73
2019-05-22T00:45:37.382Z,12.98
2019-05-22T00:48:03.177Z,12.75
2019-05-22T00:50:33.549Z,13.30
2019-05-22T00:53:02.682Z,13.38
2019-05-22T00:55:39.795Z,13.73
2019-05-22T00:58:08.152Z,13.55
2019-05-22T01:00:35.575Z,13.09
2019-05-22T01:03:02.275Z,13.07
2019-05-22T01:05:29.555Z,12.83
2019-05-22T01:07:55.726Z,12.86
2019-05-22T01:10:22.841Z,13.15
2019-05-22T01:12:51.403Z,12.98
2019-05-22T01:15:20.528Z,13.60
2019-05-22T01:17:46.646Z,13.17
2019-05-22T01:20:17.910Z,13.12
2019-05-22T01:22:42.578Z,13.16
2019-05-22T01:25:10.509Z,12.95
2019-05-22T01:27:36.636Z,13.63
2019-05-22T01:30:03.508Z,13.32
2019-05-22T01:32:33.635Z,12.99
2019-05-22T01:34:58.169Z,12.72
2019-05-22T01:37:24.056Z,13.04
2019-05-22T01:39:56.084Z,12.56
2019-05-22T01:42:25.250Z,12.85
2019-05-22T01:45:04.189Z,12.90
2019-05-22T01:47:24.480Z,12.79
2019-05-22T01:49:52.081Z,13.21
2019-05-22T01:52:17.242Z,12.82
2019-05-22T01:54:43.035Z,12.63
2019-05-22T01:57:10.260Z,12.73
2019-05-22T01:59:35.315Z,12.56
2019-05-22T02:01:59.858Z,13.05
2019-05-22T02:04:26.796Z,12.66
2019-05-22T02:06:51.423Z,12.50
2019-05-22T02:09:30.939Z,13.11
2019-05-22T02:12:02.661Z,13.74
2019-05-22T02:14:28.134Z,12.96
2019-05-22T02:16:56.635Z,13.03
2019-05-22T02:19:20.768Z,13.16
2019-05-22T02:21:45.762Z,12.95
2019-05-22T02:24:11.796Z,13.40
2019-05-22T02:26:37.123Z,13.20
2019-05-22T02:29:02.830Z,12.61
2019-05-22T02:31:29.322Z,12.73
2019-05-22T02:34:04.737Z,12.86
2019-05-22T02:36:29.432Z,12.67
2019-05-22T02:38:54.766Z,12.32
2019-05-22T02:41:20.483Z,12.40
2019-05-22T02:43:44.934Z,12.66
2019-05-22T02:46:11.944Z,12.52
2019-05-22T02:48:37.284Z,12.64
2019-05-22T02:51:01.945Z,12.32
2019-05-22T02:53:28.620Z,12.74
2019-05-22T02:55:56.192Z,12.67
2019-05-22T02:58:21.228Z,12.37
2019-05-22T03:00:58.370Z,12.15
2019-05-22T03:03:22.901Z,12.31
2019-05-22T03:05:48.600Z,12.08
2019-05-22T03:08:13.226Z,11.97
2019-05-22T03:10:38.807Z,12.16
2019-05-22T03:13:04.181Z,12.17
2019-05-22T03:15:29.972Z,12.27
2019-05-22T03:17:59.120Z,12.16
2019-05-22T03:20:28.822Z,11.73
2019-05-22T03:23:19.001Z,11.96
2019-05-22T03:25:44.103Z,12.08
2019-05-22T03:28:09.965Z,11.95
2019-05-22T03:30:38.224Z,11.90
2019-05-22T03:33:06.748Z,12.37
2019-05-22T03:35:33.354Z,12.68
2019-05-22T03:37:59.230Z,12.25
2019-05-22T03:40:25.433Z,12.07
2019-05-22T03:42:51.258Z,12.31
2019-05-22T03:45:16.792Z,12.28
2019-05-22T03:47:42.040Z,12.05
2019-05-22T03:50:07.935Z,12.42
2019-05-22T03:52:32.897Z,11.97
2019-05-22T03:54:57.585Z,12.31
2019-05-22T03:57:22.974Z,11.86
2019-05-22T03:59:47.877Z,11.91
2019-05-22T04:02:13.273Z,11.88
2019-05-22T04:04:41.078Z,11.74
2019-05-22T04:07:07.730Z,12.24
2019-05-22T04:09:33.431Z,12.36
2019-05-22T04:11:58.280Z,12.16
2019-05-22T04:14:26.254Z,12.17
2019-05-22T04:16:51.802Z,12.22
2019-05-22T04:19:16.265Z,12.02
2019-05-22T04:21:41.294Z,11.73
2019-05-22T04:24:06.016Z,11.77
2019-05-22T04:26:30.678Z,11.62
2019-05-22T04:28:55.760Z,11.46
2019-05-22T04:31:22.103Z,11.98
2019-05-22T04:33:47.275Z,11.77
2019-05-22T04:36:12.297Z,11.72
2019-05-22T04:38:36.747Z,11.93
2019-05-22T04:41:04.698Z,12.17
2019-05-22T04:43:32.675Z,12.15
2019-05-22T04:46:01.704Z,12.08
2019-05-22T04:48:27.037Z,11.84
2019-05-22T04:50:51.985Z,12.13
2019-05-22T04:53:16.955Z,12.08
2019-05-22T04:55:41.508Z,11.99
2019-05-22T04:58:11.066Z,12.33
2019-05-22T05:00:36.559Z,12.43
2019-05-22T05:03:01.861Z,12.03
2019-05-22T05:05:28.967Z,12.12
2019-05-22T05:07:54.925Z,11.87
2019-05-22T05:10:20.830Z,11.68
2019-05-22T05:12:46.120Z,12.11
2019-05-22T05:15:11.340Z,12.08
2019-05-22T05:17:36.925Z,11.95
2019-05-22T05:20:01.548Z,12.18
2019-05-22T05:22:37.876Z,12.30
2019-05-22T05:25:02.432Z,11.80
2019-05-22T05:27:28.103Z,11.84
2019-05-22T05:29:52.598Z,11.88
2019-05-22T05:32:17.153Z,11.88
2019-05-22T05:34:45.525Z,12.01
2019-05-22T05:37:12.305Z,11.94
2019-05-22T05:39:40.291Z,11.78
2019-05-22T05:42:05.504Z,11.63
2019-05-22T05:44:30.202Z,12.02
2019-05-22T05:46:55.101Z,11.98
2019-05-22T05:49:21.204Z,12.14
2019-05-22T05:51:46.494Z,12.39
2019-05-22T05:54:12.835Z,11.81
2019-05-22T05:56:41.415Z,11.99
2019-05-22T05:59:07.555Z,12.32
2019-05-22T06:01:33.885Z,12.48
2019-05-22T06:04:00.571Z,12.28
2019-05-22T06:06:29.718Z,12.24
2019-05-22T06:08:54.905Z,12.21
2019-05-22T06:11:28.337Z,12.10
2019-05-22T06:13:52.831Z,11.98
2019-05-22T06:16:20.784Z,12.26
2019-05-22T06:18:46.137Z,12.12
2019-05-22T06:21:11.796Z,12.37
2019-05-22T06:23:39.619Z,12.05
2019-05-22T06:26:04.974Z,11.87
2019-05-22T06:28:35.482Z,11.99
2019-05-22T06:31:01.919Z,12.05
2019-05-22T06:33:34.803Z,12.42
2019-05-22T06:36:01.213Z,12.54
2019-05-22T06:38:38.087Z,12.36
2019-05-22T06:41:03.416Z,12.31
2019-05-22T06:43:31.185Z,12.50
2019-05-22T06:45:56.294Z,12.27
2019-05-22T06:48:20.882Z,12.16
2019-05-22T06:50:48.997Z,12.16
2019-05-22T06:53:12.298Z,12.32
2019-05-22T06:55:36.778Z,12.57
2019-05-22T06:58:01.333Z,12.54
2019-05-22T07:00:26.715Z,12.24
2019-05-22T07:02:52.043Z,12.80
2019-05-22T07:05:17.444Z,12.86
2019-05-22T07:07:42.551Z,12.52
2019-05-22T07:10:08.334Z,12.65
2019-05-22T07:12:35.553Z,12.10
2019-05-22T07:15:07.312Z,11.90
2019-05-22T07:17:31.760Z,12.64
2019-05-22T07:19:57.188Z,12.63
2019-05-22T07:22:22.170Z,12.47
2019-05-22T07:24:47.857Z,12.80
2019-05-22T07:27:26.903Z,12.90
2019-05-22T07:29:51.756Z,12.83
2019-05-22T07:32:16.570Z,12.63
2019-05-22T07:34:41.580Z,12.75
2019-05-22T07:37:07.046Z,12.95
2019-05-22T07:39:31.579Z,13.07
2019-05-22T07:41:56.202Z,13.30
2019-05-22T07:44:20.789Z,12.80
2019-05-22T07:46:45.901Z,13.35
2019-05-22T07:49:11.819Z,12.79
2019-05-22T07:51:51.558Z,13.08
2019-05-22T07:54:03.918Z,12.62
2019-05-22T07:56:30.415Z,12.83
2019-05-22T07:58:58.922Z,13.32
2019-05-22T08:01:22.958Z,12.44
2019-05-22T08:03:49.352Z,13.03
2019-05-22T08:06:14.924Z,12.90
2019-05-22T08:08:41.876Z,12.50
2019-05-22T08:11:07.578Z,12.27
2019-05-22T08:13:33.048Z,12.35
2019-05-22T08:15:57.720Z,12.58
2019-05-22T08:18:22.428Z,13.04
2019-05-22T08:20:46.957Z,12.80
2019-05-22T08:23:12.458Z,12.44
2019-05-22T08:25:37.560Z,12.71
2019-05-22T08:28:02.135Z,12.73
2019-05-22T08:30:27.142Z,12.56
2019-05-22T08:32:53.316Z,12.50
2019-05-22T08:35:18.243Z,12.63
2019-05-22T08:37:43.319Z,12.65
2019-05-22T08:40:11.719Z,12.45
2019-05-22T08:42:36.416Z,12.81
2019-05-22T08:45:00.950Z,12.78
2019-05-22T08:47:25.770Z,12.84
2019-05-22T08:49:51.166Z,13.16
2019-05-22T08:52:23.745Z,13.08
2019-05-22T08:54:43.036Z,12.79
2019-05-22T08:57:08.753Z,12.65
2019-05-22T08:59:33.408Z,12.29
2019-05-22T09:01:58.310Z,12.17
2019-05-22T09:04:22.830Z,12.34
2019-05-22T09:06:47.431Z,12.06
2019-05-22T09:09:12.017Z,12.16
2019-05-22T09:11:36.479Z,12.33
2019-05-22T09:14:01.521Z,12.34
2019-05-22T09:16:26.406Z,12.56
2019-05-22T09:18:51.635Z,12.34
2019-05-22T09:21:16.678Z,12.65
2019-05-22T09:23:42.417Z,12.12
2019-05-22T09:26:08.275Z,12.20
2019-05-22T09:28:32.782Z,12.55
2019-05-22T09:30:57.476Z,12.84
2019-05-22T09:33:23.141Z,12.54
2019-05-22T09:35:48.311Z,12.80
2019-05-22T09:38:12.938Z,13.10
2019-05-22T09:40:37.794Z,12.72
2019-05-22T09:43:03.931Z,12.54
2019-05-22T09:45:28.465Z,12.94
2019-05-22T09:47:53.540Z,12.53
2019-05-22T09:50:18.736Z,12.72
2019-05-22T09:52:56.801Z,13.02
2019-05-22T09:55:13.090Z,13.11
2019-05-22T09:57:37.987Z,12.82
2019-05-22T10:00:02.579Z,13.42
2019-05-22T10:02:30.968Z,13.30
2019-05-22T10:04:55.652Z,13.08
2019-05-22T10:07:20.992Z,13.36
2019-05-22T10:09:45.634Z,13.63
2019-05-22T10:12:11.632Z,12.92
2019-05-22T10:14:36.741Z,13.21
2019-05-22T10:17:01.550Z,12.90
2019-05-22T10:19:26.284Z,13.26
2019-05-22T10:21:50.931Z,13.38
2019-05-22T10:24:15.752Z,13.52
2019-05-22T10:26:41.201Z,13.17
2019-05-22T10:29:06.400Z,13.27
2019-05-22T10:31:31.050Z,12.91
2019-05-22T10:33:56.504Z,13.16
2019-05-22T10:36:24.410Z,13.21
2019-05-22T10:38:49.207Z,12.96
2019-05-22T10:41:14.260Z,13.57
2019-05-22T10:43:38.870Z,13.65
2019-05-22T10:46:03.469Z,13.81
2019-05-22T10:48:28.230Z,13.64
2019-05-22T10:50:52.739Z,13.39
2019-05-22T10:53:32.224Z,13.19
2019-05-22T10:55:43.974Z,13.27
2019-05-22T10:58:08.971Z,13.50
2019-05-22T11:00:34.469Z,13.21
2019-05-22T11:02:59.140Z,13.03
2019-05-22T11:05:23.777Z,13.00
2019-05-22T11:07:49.054Z,13.32
2019-05-22T11:10:15.324Z,13.66
2019-05-22T11:12:41.167Z,13.54
2019-05-22T11:15:07.440Z,13.50
2019-05-22T11:17:31.876Z,13.50
2019-05-22T11:19:56.485Z,13.18
2019-05-22T11:22:21.053Z,13.19
2019-05-22T11:24:45.657Z,12.86
2019-05-22T11:27:10.384Z,12.77
2019-05-22T11:29:35.226Z,13.26
2019-05-22T11:32:00.469Z,13.20
2019-05-22T11:34:26.768Z,13.67
2019-05-22T11:36:51.713Z,13.49
2019-05-22T11:39:17.988Z,14.08
2019-05-22T11:41:43.266Z,13.76
2019-05-22T11:44:09.004Z,13.91
2019-05-22T11:46:34.039Z,14.22
2019-05-22T11:48:58.565Z,14.29
2019-05-22T11:51:23.177Z,14.61
2019-05-22T11:53:47.776Z,14.59
2019-05-22T11:56:12.523Z,14.26
2019-05-22T11:58:37.347Z,13.97
2019-05-22T12:01:02.089Z,13.99
2019-05-22T12:03:26.922Z,14.11
2019-05-22T12:05:52.021Z,14.50
2019-05-22T12:08:17.207Z,14.51
2019-05-22T12:10:42.646Z,14.90
2019-05-22T12:13:09.501Z,14.44
2019-05-22T12:15:34.928Z,14.33
2019-05-22T12:18:00.128Z,14.82
2019-05-22T12:20:29.550Z,14.78
2019-05-22T12:22:54.171Z,15.27
2019-05-22T12:25:20.499Z,15.58
2019-05-22T12:27:45.174Z,15.34
2019-05-22T12:30:11.629Z,15.15
2019-05-22T12:32:38.171Z,15.15
2019-05-22T12:35:02.974Z,14.46
2019-05-22T12:37:28.593Z,14.74
2019-05-22T12:39:53.873Z,14.88
2019-05-22T12:42:18.650Z,14.70
2019-05-22T12:44:44.022Z,14.36
2019-05-22T12:47:09.903Z,14.64
2019-05-22T12:49:34.457Z,15.17
2019-05-22T12:52:00.948Z,15.20
2019-05-22T12:54:25.983Z,16.03
2019-05-22T12:56:50.709Z,16.13
2019-05-22T12:59:15.973Z,15.63
2019-05-22T13:01:40.656Z,15.67
2019-05-22T13:04:06.906Z,16.02
2019-05-22T13:06:32.238Z,16.35
2019-05-22T13:08:57.384Z,16.24
2019-05-22T13:11:22.585Z,16.36
2019-05-22T13:13:47.380Z,15.81
2019-05-22T13:16:11.807Z,16.10
2019-05-22T13:18:37.362Z,15.99
2019-05-22T13:21:03.704Z,14.84
2019-05-22T13:23:31.924Z,16.04
2019-05-22T13:25:56.408Z,15.38
2019-05-22T13:28:21.829Z,15.55
2019-05-22T13:30:50.337Z,15.87
2019-05-22T13:33:18.057Z,15.77
2019-05-22T13:35:43.320Z,15.43
2019-05-22T13:38:07.935Z,15.39
2019-05-22T13:40:33.198Z,14.99
2019-05-22T13:42:59.259Z,15.50
2019-05-22T13:45:29.109Z,16.03
2019-05-22T13:47:50.397Z,16.12
2019-05-22T13:50:17.776Z,16.33
2019-05-22T13:52:44.380Z,16.68
2019-05-22T13:55:11.441Z,16.42
2019-05-22T13:57:36.754Z,16.47
2019-05-22T14:00:01.647Z,16.39
2019-05-22T14:02:27.409Z,16.05
2019-05-22T14:04:52.018Z,15.85
2019-05-22T14:07:16.892Z,15.76
2019-05-22T14:09:42.090Z,15.80
2019-05-22T14:12:07.458Z,16.63
2019-05-22T14:14:32.339Z,16.22
2019-05-22T14:16:56.972Z,16.09
2019-05-22T14:19:21.860Z,15.78
2019-05-22T14:21:51.313Z,15.81
2019-05-22T14:24:13.067Z,15.46
2019-05-22T14:26:38.068Z,15.20
2019-05-22T14:29:03.151Z,15.75
2019-05-22T14:31:27.672Z,16.19
2019-05-22T14:33:52.495Z,16.46
2019-05-22T14:36:17.083Z,16.08
2019-05-22T14:38:41.685Z,15.63
2019-05-22T14:41:06.513Z,15.88
2019-05-22T14:43:31.325Z,15.94
2019-05-22T14:45:56.265Z,15.28
2019-05-22T14:48:20.993Z,15.84
2019-05-22T14:50:45.673Z,15.52
2019-05-22T14:53:11.513Z,15.68
2019-05-22T14:55:37.156Z,15.79
2019-05-22T14:58:02.479Z,16.15
2019-05-22T15:00:28.143Z,16.23
2019-05-22T15:02:57.292Z,16.89
2019-05-22T15:05:20.327Z,16.30
2019-05-22T15:07:45.141Z,16.07
2019-05-22T15:10:16.505Z,16.90
2019-05-22T15:12:38.011Z,16.45
2019-05-22T15:15:02.726Z,16.57
2019-05-22T15:17:32.333Z,16.78
2019-05-22T15:19:54.138Z,15.78
2019-05-22T15:22:18.892Z,16.28
2019-05-22T15:24:43.619Z,16.42
2019-05-22T15:27:09.489Z,16.71
2019-05-22T15:29:34.111Z,17.20
2019-05-22T15:31:59.468Z,16.91
2019-05-22T15:34:24.149Z,17.44
2019-05-22T15:36:48.678Z,17.82
2019-05-22T15:39:17.418Z,17.20
2019-05-22T15:41:43.210Z,17.29
2019-05-22T15:44:08.722Z,17.07
2019-05-22T15:46:34.270Z,17.01
2019-05-22T15:48:59.676Z,17.60
2019-05-22T15:51:28.040Z,17.66
2019-05-22T15:53:55.571Z,17.67
2019-05-22T15:56:20.482Z,17.14
2019-05-22T15:58:48.855Z,16.76
2019-05-22T16:01:16.473Z,17.29
2019-05-22T16:03:42.439Z,17.28
2019-05-22T16:06:08.561Z,17.90
2019-05-22T16:08:34.402Z,17.56
2019-05-22T16:11:00.875Z,17.40
2019-05-22T16:13:26.858Z,17.42
2019-05-22T16:15:54.759Z,17.31
2019-05-22T16:18:24.054Z,17.64
2019-05-22T16:20:49.777Z,17.33
2019-05-22T16:23:15.261Z,17.66
2019-05-22T16:25:40.141Z,17.27
2019-05-22T16:28:05.260Z,17.41
2019-05-22T16:30:30.749Z,17.59
2019-05-22T16:32:56.304Z,17.81
2019-05-22T16:35:21.791Z,17.50
2019-05-22T16:37:47.345Z,17.87
2019-05-22T16:40:13.135Z,17.60
2019-05-22T16:42:38.991Z,17.89
2019-05-22T16:45:05.879Z,17.39
2019-05-22T16:47:33.517Z,17.46
2019-05-22T16:49:58.359Z,17.13
2019-05-22T16:52:25.423Z,17.19
2019-05-22T16:54:50.017Z,17.21
2019-05-22T16:57:15.499Z,17.44
2019-05-22T16:59:41.355Z,17.23
2019-05-22T17:02:07.631Z,17.39
2019-05-22T17:04:32.136Z,17.41
2019-05-22T17:06:56.664Z,17.69
2019-05-22T17:09:21.774Z,17.48
2019-05-22T17:11:47.430Z,17.66
2019-05-22T17:14:14.599Z,17.43
2019-05-22T17:16:39.798Z,16.99
2019-05-22T17:19:23.716Z,17.10
2019-05-22T17:21:32.311Z,16.96
2019-05-22T17:23:59.420Z,16.67
2019-05-22T17:26:24.158Z,17.01
2019-05-22T17:28:49.091Z,17.78
2019-05-22T17:31:15.376Z,17.67
2019-05-22T17:33:40.578Z,17.55
2019-05-22T17:36:06.866Z,16.97
2019-05-22T17:38:32.065Z,16.67
2019-05-22T17:40:57.337Z,17.25
2019-05-22T17:43:24.163Z,17.69
2019-05-22T17:45:49.199Z,17.16
2019-05-22T17:48:16.364Z,17.87
2019-05-22T17:50:41.741Z,17.96
2019-05-22T17:53:06.716Z,18.07
2019-05-22T17:55:31.992Z,17.57
2019-05-22T17:57:57.488Z,17.16
2019-05-22T18:00:29.574Z,16.69
2019-05-22T18:02:54.657Z,16.44
2019-05-22T18:05:19.735Z,15.94
2019-05-22T18:07:44.377Z,16.14
2019-05-22T18:10:10.351Z,16.32
2019-05-22T18:12:35.106Z,16.75
2019-05-22T18:14:59.986Z,16.45
2019-05-22T18:17:24.773Z,16.48
2019-05-22T18:19:49.367Z,16.17
2019-05-22T18:22:14.648Z,16.42
2019-05-22T18:24:39.189Z,16.56
2019-05-22T18:27:03.675Z,16.82
2019-05-22T18:29:28.291Z,16.79
2019-05-22T18:31:52.899Z,16.35
2019-05-22T18:34:17.718Z,16.74
2019-05-22T18:36:42.396Z,17.05
2019-05-22T18:39:09.017Z,17.27
2019-05-22T18:41:33.584Z,17.11
2019-05-22T18:43:59.048Z,16.23
2019-05-22T18:46:23.745Z,16.54
2019-05-22T18:48:48.468Z,16.49
2019-05-22T18:51:13.294Z,16.55
2019-05-22T18:53:38.675Z,15.85
2019-05-22T18:56:04.063Z,16.71
2019-05-22T18:58:28.825Z,16.84
2019-05-22T19:00:53.533Z,16.90
2019-05-22T19:03:18.277Z,16.65
2019-05-22T19:05:43.576Z,17.20
2019-05-22T19:08:08.156Z,16.92
2019-05-22T19:10:32.753Z,17.26
2019-05-22T19:12:57.922Z,17.30
2019-05-22T19:15:22.707Z,17.30
2019-05-22T19:17:47.559Z,16.96
2019-05-22T19:20:12.251Z,17.18
2019-05-22T19:22:37.130Z,17.08
2019-05-22T19:25:02.206Z,16.97
2019-05-22T19:27:26.670Z,17.10
2019-05-22T19:29:51.246Z,17.05
2019-05-22T19:32:15.938Z,17.06
2019-05-22T19:34:40.559Z,16.99
2019-05-22T19:37:05.344Z,17.02
2019-05-22T19:39:30.238Z,16.88
2019-05-22T19:42:02.689Z,16.86
2019-05-22T19:44:21.806Z,16.87
2019-05-22T19:46:46.390Z,16.77
2019-05-22T19:49:11.685Z,16.56
2019-05-22T19:51:37.373Z,16.55
2019-05-22T19:54:01.913Z,16.63
2019-05-22T19:56:26.775Z,16.61
2019-05-22T19:58:52.088Z,16.52
2019-05-22T20:01:17.742Z,16.51
2019-05-22T20:03:42.430Z,16.45
2019-05-22T20:06:07.311Z,16.39
2019-05-22T20:08:32.022Z,16.46
2019-05-22T20:10:56.463Z,16.17
2019-05-22T20:13:23.690Z,16.23
2019-05-22T20:15:48.370Z,16.16
2019-05-22T20:18:13.612Z,15.84
2019-05-22T20:20:38.664Z,15.88
2019-05-22T20:23:04.577Z,15.81
2019-05-22T20:25:29.265Z,15.98
2019-05-22T20:27:54.608Z,15.92
2019-05-22T20:30:21.746Z,15.66
2019-05-22T20:32:46.256Z,15.74
2019-05-22T20:35:11.536Z,15.73
2019-05-22T20:37:36.064Z,15.75
2019-05-22T20:40:00.796Z,15.75
2019-05-22T20:42:25.559Z,15.70
2019-05-22T20:44:50.235Z,15.66
2019-05-22T20:47:16.474Z,15.59
2019-05-22T20:49:44.955Z,15.75
2019-05-22T20:52:10.865Z,15.70
2019-05-22T20:54:36.577Z,15.70
2019-05-22T20:57:02.308Z,15.69
2019-05-22T20:59:27.130Z,15.55
2019-05-22T21:01:51.764Z,15.54
2019-05-22T21:04:19.744Z,15.41
2019-05-22T21:06:50.021Z,15.48
2019-05-22T21:09:14.680Z,15.19
2019-05-22T21:11:40.469Z,15.34
2019-05-22T21:14:05.922Z,15.39
2019-05-22T21:16:31.619Z,15.34
2019-05-22T21:18:57.107Z,15.31
2019-05-22T21:21:23.729Z,15.31
2019-05-22T21:23:49.118Z,15.17
2019-05-22T21:26:15.253Z,15.08
2019-05-22T21:28:40.233Z,14.79
2019-05-22T21:31:05.924Z,14.94
2019-05-22T21:33:30.808Z,14.91
2019-05-22T21:35:55.388Z,15.09
2019-05-22T21:38:20.664Z,15.01
2019-05-22T21:40:45.817Z,14.40
2019-05-22T21:43:10.882Z,14.71
2019-05-22T21:45:35.506Z,14.71
2019-05-22T21:48:00.110Z,14.67
2019-05-22T21:50:25.818Z,14.49
2019-05-22T21:52:52.787Z,14.70
2019-05-22T21:55:19.342Z,14.66
2019-05-22T21:57:45.518Z,14.63
2019-05-22T22:00:14.706Z,14.61
2019-05-22T22:02:42.255Z,14.73
2019-05-22T22:05:08.822Z,14.70
2019-05-22T22:07:33.324Z,14.61
2019-05-22T22:09:59.919Z,14.62
2019-05-22T22:12:24.948Z,14.65
2019-05-22T22:14:49.666Z,14.59
2019-05-22T22:17:14.807Z,14.62
2019-05-22T22:19:39.392Z,14.64
2019-05-22T22:22:05.329Z,14.63
2019-05-22T22:24:30.386Z,14.49
2019-05-22T22:26:55.499Z,14.49
2019-05-22T22:29:20.705Z,14.43
2019-05-22T22:31:46.325Z,14.43
2019-05-22T22:34:17.696Z,14.34
2019-05-22T22:36:42.516Z,14.43
2019-05-22T22:39:08.206Z,14.24
2019-05-22T22:41:33.217Z,14.41
2019-05-22T22:43:58.445Z,14.04
2019-05-22T22:46:30.206Z,14.23
2019-05-22T22:48:57.862Z,14.25
2019-05-22T22:51:25.325Z,14.19
2019-05-22T22:53:50.394Z,14.27
2019-05-22T22:56:15.930Z,14.22
2019-05-22T22:58:41.116Z,14.06
2019-05-22T23:01:09.438Z,14.16
2019-05-22T23:03:35.895Z,14.06
2019-05-22T23:06:01.013Z,13.87
2019-05-22T23:08:29.605Z,13.76
2019-05-22T23:10:54.824Z,13.84
2019-05-22T23:13:19.436Z,13.88
2019-05-22T23:15:44.472Z,13.83
2019-05-22T23:18:10.758Z,13.71
2019-05-22T23:20:34.117Z,13.69
2019-05-22T23:22:57.421Z,13.66
2019-05-22T23:25:23.887Z,13.52
2019-05-22T23:27:48.679Z,13.45
2019-05-22T23:30:14.072Z,13.33
2019-05-22T23:32:41.343Z,12.98
2019-05-22T23:35:07.519Z,12.92
2019-05-22T23:37:32.345Z,13.15
2019-05-22T23:39:57.434Z,13.25
2019-05-22T23:42:25.736Z,13.24
2019-05-22T23:44:53.922Z,13.02
2019-05-22T23:47:19.105Z,13.04
2019-05-22T23:49:43.665Z,13.08
2019-05-22T23:52:10.598Z,12.82
2019-05-22T23:54:36.190Z,12.94
2019-05-22T23:57:01.886Z,12.83
2019-05-22T23:59:27.944Z,12.79
